createdAt,value
2023-10-01T00:00:40.252Z,1.83
2023-10-01T00:03:08.648Z,1.70
2023-10-01T00:05:37.630Z,1.73
2023-10-01T00:08:08.351Z,1.60
2023-10-01T00:10:36.730Z,1.70
2023-10-01T00:13:05.196Z,1.80
2023-10-01T00:15:34.630Z,2.00
2023-10-01T00:18:03.016Z,1.50
2023-10-01T00:20:31.457Z,1.83
2023-10-01T00:23:06.781Z,1.60
2023-10-01T00:25:37.627Z,1.50
2023-10-01T00:28:07.920Z,1.50
2023-10-01T00:30:36.657Z,1.65
2023-10-01T00:33:09.851Z,1.30
2023-10-01T00:35:42.959Z,1.60
2023-10-01T00:38:12.007Z,1.35
2023-10-01T00:40:44.799Z,1.27
2023-10-01T00:43:14.090Z,1.20
2023-10-01T00:45:42.923Z,1.50
2023-10-01T00:48:13.276Z,1.45
2023-10-01T00:50:42.249Z,1.67
2023-10-01T00:53:13.824Z,1.33
2023-10-01T00:55:42.089Z,1.30
2023-10-01T00:58:13.544Z,1.50
2023-10-01T01:00:44.354Z,1.50
2023-10-01T01:03:21.233Z,1.70
2023-10-01T01:06:04.762Z,1.33
2023-10-01T01:08:35.853Z,1.40
2023-10-01T01:11:04.342Z,1.40
2023-10-01T01:13:35.700Z,1.52
2023-10-01T01:16:07.966Z,1.60
2023-10-01T01:18:38.864Z,1.50
2023-10-01T01:21:15.574Z,1.73
2023-10-01T01:23:43.980Z,1.70
2023-10-01T01:26:23.034Z,1.45
2023-10-01T01:28:51.993Z,1.30
2023-10-01T01:31:20.951Z,1.63
2023-10-01T01:33:55.138Z,1.65
2023-10-01T01:36:23.973Z,1.40
2023-10-01T01:39:44.192Z,1.27
2023-10-01T01:42:13.589Z,1.40
2023-10-01T01:44:41.893Z,1.60
2023-10-01T01:47:10.586Z,1.73
2023-10-01T01:49:42.848Z,1.40
2023-10-01T01:52:12.132Z,1.90
2023-10-01T01:54:45.702Z,1.40
2023-10-01T01:57:19.536Z,1.60
2023-10-01T01:59:47.938Z,1.58
2023-10-01T02:02:16.401Z,1.35
2023-10-01T02:05:03.142Z,1.50
2023-10-01T02:07:35.525Z,1.48
2023-10-01T02:10:06.286Z,1.52
2023-10-01T02:12:38.237Z,1.70
2023-10-01T02:15:10.184Z,1.65
2023-10-01T02:17:38.672Z,1.20
2023-10-01T02:20:29.279Z,1.30
2023-10-01T02:23:00.305Z,1.27
2023-10-01T02:25:39.042Z,1.80
2023-10-01T02:28:15.779Z,1.40
2023-10-01T02:30:46.761Z,1.73
2023-10-01T02:33:18.485Z,1.65
2023-10-01T02:35:51.207Z,1.52
2023-10-01T02:38:37.705Z,1.77
2023-10-01T02:41:10.341Z,1.60
2023-10-01T02:43:43.677Z,1.60
2023-10-01T02:46:14.599Z,1.70
2023-10-01T02:48:44.268Z,1.50
2023-10-01T02:51:18.692Z,1.70
2023-10-01T02:56:54.625Z,2.20
2023-10-01T02:59:22.945Z,1.90
2023-10-01T03:01:51.351Z,2.22
2023-10-01T03:04:19.743Z,1.80
2023-10-01T03:06:58.459Z,2.05
2023-10-01T03:09:38.013Z,1.90
2023-10-01T03:12:25.266Z,1.80
2023-10-01T03:15:03.049Z,1.75
2023-10-01T03:17:41.067Z,1.80
2023-10-01T03:20:28.853Z,1.90
2023-10-01T03:22:58.503Z,1.50
2023-10-01T03:25:30.796Z,1.70
2023-10-01T03:28:03.711Z,1.92
2023-10-01T03:30:34.217Z,1.88
2023-10-01T03:33:09.933Z,2.00
2023-10-01T03:35:38.172Z,2.20
2023-10-01T03:38:12.526Z,2.08
2023-10-01T03:40:58.750Z,1.88
2023-10-01T03:43:47.948Z,1.88
2023-10-01T03:46:17.230Z,2.10
2023-10-01T03:49:05.293Z,2.13
2023-10-01T03:51:53.119Z,2.40
2023-10-01T03:54:48.801Z,1.83
2023-10-01T03:57:20.510Z,2.03
2023-10-01T03:59:54.468Z,2.17
2023-10-01T04:02:30.669Z,1.70
2023-10-01T04:05:06.264Z,1.92
2023-10-01T04:07:45.159Z,2.08
2023-10-01T04:10:34.505Z,1.98
2023-10-01T04:13:14.410Z,1.98
2023-10-01T04:15:43.881Z,1.90
2023-10-01T04:18:21.749Z,2.10
2023-10-01T04:21:01.234Z,1.90
2023-10-01T04:23:42.519Z,1.90
2023-10-01T04:26:15.712Z,2.28
2023-10-01T04:28:46.531Z,2.22
2023-10-01T04:31:42.400Z,1.95
2023-10-01T04:34:13.543Z,1.80
2023-10-01T04:36:44.998Z,2.28
2023-10-01T04:39:13.772Z,2.28
2023-10-01T04:41:42.048Z,2.03
2023-10-01T04:44:10.424Z,2.22
2023-10-01T04:46:39.253Z,2.03
2023-10-01T04:49:21.912Z,1.90
2023-10-01T04:52:03.062Z,1.92
2023-10-01T04:54:31.335Z,2.07
2023-10-01T04:57:00.001Z,2.30
2023-10-01T04:59:29.646Z,2.00
2023-10-01T05:02:17.737Z,2.63
2023-10-01T05:04:46.403Z,2.13
2023-10-01T05:07:17.090Z,2.30
2023-10-01T05:09:45.995Z,2.15
2023-10-01T05:12:14.834Z,2.50
2023-10-01T05:15:01.603Z,2.90
2023-10-01T05:17:32.868Z,2.30
2023-10-01T05:20:01.215Z,2.55
2023-10-01T05:22:31.869Z,2.30
2023-10-01T05:25:01.468Z,2.50
2023-10-01T05:27:30.472Z,2.90
2023-10-01T05:29:59.100Z,3.03
2023-10-01T05:32:27.414Z,2.60
2023-10-01T05:35:11.037Z,2.85
2023-10-01T05:37:39.399Z,3.17
2023-10-01T05:40:13.611Z,3.08
2023-10-01T05:42:42.910Z,2.97
2023-10-01T05:45:20.276Z,2.88
2023-10-01T05:47:56.656Z,3.40
2023-10-01T05:50:31.013Z,3.15
2023-10-01T05:52:59.595Z,3.15
2023-10-01T05:55:27.984Z,3.03
2023-10-01T05:58:14.934Z,3.30
2023-10-01T06:00:52.934Z,3.15
2023-10-01T06:03:21.244Z,3.28
2023-10-01T06:05:52.318Z,3.33
2023-10-01T06:08:26.871Z,3.10
2023-10-01T06:13:50.693Z,3.38
2023-10-01T06:16:24.764Z,2.90
2023-10-01T06:18:59.607Z,3.35
2023-10-01T06:21:33.765Z,3.40
2023-10-01T06:24:12.846Z,3.70
2023-10-01T06:26:50.245Z,3.28
2023-10-01T06:29:19.023Z,3.13
2023-10-01T06:31:55.154Z,3.40
2023-10-01T06:34:26.420Z,3.60
2023-10-01T06:37:00.908Z,3.08
2023-10-01T06:39:35.132Z,3.35
2023-10-01T06:42:23.197Z,3.45
2023-10-01T06:44:57.122Z,3.20
2023-10-01T06:47:29.000Z,3.30
2023-10-01T06:50:07.211Z,3.88
2023-10-01T06:52:38.005Z,3.95
2023-10-01T06:55:06.951Z,3.38
2023-10-01T06:57:40.663Z,3.15
2023-10-01T07:00:19.968Z,3.78
2023-10-01T07:02:48.171Z,3.55
2023-10-01T07:05:22.208Z,3.25
2023-10-01T07:07:51.425Z,4.03
2023-10-01T07:10:22.230Z,3.20
2023-10-01T07:13:00.514Z,3.50
2023-10-01T07:15:29.067Z,3.38
2023-10-01T07:18:00.114Z,3.67
2023-10-01T07:20:28.402Z,3.72
2023-10-01T07:22:58.422Z,3.75
2023-10-01T07:25:45.572Z,3.75
2023-10-01T07:28:20.644Z,3.75
2023-10-01T07:30:58.146Z,3.63
2023-10-01T07:33:30.400Z,3.50
2023-10-01T07:36:01.768Z,3.83
2023-10-01T07:38:31.652Z,3.75
2023-10-01T07:41:00.053Z,3.50
2023-10-01T07:43:32.961Z,3.92
2023-10-01T07:46:04.268Z,3.13
2023-10-01T07:48:37.445Z,2.92
2023-10-01T07:51:05.733Z,3.55
2023-10-01T07:53:36.805Z,3.28
2023-10-01T07:56:09.006Z,4.10
2023-10-01T07:58:52.559Z,3.45
2023-10-01T08:01:39.361Z,3.42
2023-10-01T08:04:10.976Z,3.60
2023-10-01T08:06:51.559Z,4.05
2023-10-01T08:09:19.771Z,3.63
2023-10-01T08:12:00.493Z,4.10
2023-10-01T08:14:29.044Z,3.78
2023-10-01T08:17:02.148Z,3.88
2023-10-01T08:19:58.809Z,3.58
2023-10-01T08:22:45.735Z,3.90
2023-10-01T08:25:14.600Z,3.35
2023-10-01T08:28:02.789Z,3.50
2023-10-01T08:30:45.652Z,3.63
2023-10-01T08:33:30.077Z,3.72
2023-10-01T08:36:24.433Z,4.07
2023-10-01T08:39:13.071Z,3.67
2023-10-01T08:41:52.679Z,3.55
2023-10-01T08:44:32.296Z,3.67
2023-10-01T08:47:23.302Z,3.83
2023-10-01T08:49:53.078Z,3.50
2023-10-01T08:52:29.218Z,3.70
2023-10-01T08:54:57.566Z,3.78
2023-10-01T08:57:47.149Z,3.60
2023-10-01T09:00:22.350Z,3.53
2023-10-01T09:03:09.680Z,3.75
2023-10-01T09:05:38.699Z,3.60
2023-10-01T09:08:18.858Z,3.78
2023-10-01T09:10:56.165Z,4.43
2023-10-01T09:13:25.111Z,3.42
2023-10-01T09:15:57.681Z,3.72
2023-10-01T09:18:27.758Z,3.60
2023-10-01T09:21:11.610Z,3.42
2023-10-01T09:23:57.634Z,3.33
2023-10-01T09:27:07.364Z,3.33
2023-10-01T09:29:45.219Z,3.47
2023-10-01T09:32:15.839Z,3.85
2023-10-01T09:34:55.230Z,3.58
2023-10-01T09:37:43.722Z,3.70
2023-10-01T09:40:31.206Z,3.92
2023-10-01T09:43:05.221Z,3.38
2023-10-01T09:45:43.681Z,3.60
2023-10-01T09:48:12.320Z,3.65
2023-10-01T09:50:45.138Z,3.60
2023-10-01T09:53:26.641Z,3.33
2023-10-01T09:55:58.869Z,3.45
2023-10-01T09:58:28.010Z,3.72
2023-10-01T10:01:10.659Z,3.53
2023-10-01T10:03:39.438Z,3.92
2023-10-01T10:06:12.121Z,3.70
2023-10-01T10:08:41.981Z,3.53
2023-10-01T10:11:26.045Z,3.25
2023-10-01T10:13:59.791Z,4.05
2023-10-01T10:16:37.604Z,3.45
2023-10-01T10:19:18.371Z,3.75
2023-10-01T10:22:05.006Z,3.90
2023-10-01T10:24:49.119Z,3.67
2023-10-01T10:27:26.984Z,3.93
2023-10-01T10:30:07.202Z,3.35
2023-10-01T10:32:46.874Z,3.55
2023-10-01T10:35:16.790Z,3.72
2023-10-01T10:37:49.392Z,3.95
2023-10-01T10:40:20.526Z,4.00
2023-10-01T10:43:04.920Z,3.58
2023-10-01T10:45:47.235Z,3.60
2023-10-01T10:48:18.455Z,4.22
2023-10-01T10:51:04.257Z,3.88
2023-10-01T10:53:41.181Z,3.38
2023-10-01T10:56:10.985Z,4.20
2023-10-01T10:58:44.241Z,3.22
2023-10-01T11:01:25.160Z,3.55
2023-10-01T11:04:01.514Z,4.03
2023-10-01T11:07:03.607Z,4.13
2023-10-01T11:09:33.922Z,4.10
2023-10-01T11:12:21.177Z,4.10
2023-10-01T11:14:58.080Z,3.90
2023-10-01T11:17:26.470Z,4.03
2023-10-01T11:20:00.294Z,3.92
2023-10-01T11:22:28.796Z,3.67
2023-10-01T11:24:57.811Z,4.05
2023-10-01T11:27:27.887Z,4.03
2023-10-01T11:30:22.524Z,3.65
2023-10-01T11:33:10.762Z,4.43
2023-10-01T11:35:40.550Z,3.55
2023-10-01T11:38:14.923Z,3.88
2023-10-01T11:41:03.069Z,3.38
2023-10-01T11:44:08.926Z,3.70
2023-10-01T11:46:58.759Z,3.58
2023-10-01T11:49:36.834Z,4.25
2023-10-01T11:52:27.817Z,3.53
2023-10-01T11:54:56.141Z,3.45
2023-10-01T11:57:26.279Z,3.58
2023-10-01T12:00:00.508Z,3.70
2023-10-01T12:02:45.586Z,3.63
2023-10-01T12:05:18.359Z,3.53
2023-10-01T12:07:46.920Z,4.38
2023-10-01T12:10:37.786Z,4.00
2023-10-01T12:13:09.291Z,3.80
2023-10-01T12:15:40.020Z,3.65
2023-10-01T12:18:19.328Z,3.85
2023-10-01T12:20:56.184Z,3.72
2023-10-01T12:23:28.311Z,3.60
2023-10-01T12:26:22.469Z,3.35
2023-10-01T12:29:09.324Z,3.33
2023-10-01T12:31:38.978Z,3.63
2023-10-01T12:34:07.489Z,4.13
2023-10-01T12:36:46.304Z,3.95
2023-10-01T12:39:14.527Z,4.32
2023-10-01T12:42:05.508Z,3.10
2023-10-01T12:44:34.875Z,3.78
2023-10-01T12:47:04.964Z,3.10
2023-10-01T12:49:37.770Z,3.53
2023-10-01T12:52:10.900Z,4.13
2023-10-01T12:54:39.369Z,3.63
2023-10-01T12:57:11.578Z,3.70
2023-10-01T12:59:43.840Z,4.40
2023-10-01T13:02:29.220Z,3.53
2023-10-01T13:05:22.594Z,3.80
2023-10-01T13:07:52.779Z,3.40
2023-10-01T13:10:35.446Z,3.65
2023-10-01T13:13:09.562Z,3.45
2023-10-01T13:15:43.301Z,3.28
2023-10-01T13:18:20.269Z,3.50
2023-10-01T13:21:00.844Z,3.90
2023-10-01T13:23:33.955Z,3.28
2023-10-01T13:26:08.559Z,3.63
2023-10-01T13:31:31.172Z,3.60
2023-10-01T13:34:11.486Z,4.18
2023-10-01T13:37:13.346Z,3.80
2023-10-01T13:39:41.594Z,3.97
2023-10-01T13:42:27.870Z,3.85
2023-10-01T13:45:14.534Z,3.97
2023-10-01T13:48:01.221Z,3.33
2023-10-01T13:50:47.731Z,4.20
2023-10-01T13:53:34.525Z,3.38
2023-10-01T13:56:21.274Z,3.90
2023-10-01T13:59:07.837Z,3.92
2023-10-01T14:01:54.301Z,4.20
2023-10-01T14:04:41.344Z,4.00
2023-10-01T14:07:27.939Z,3.88
2023-10-01T14:09:56.501Z,4.05
2023-10-01T14:12:43.718Z,3.92
2023-10-01T14:15:23.746Z,3.50
2023-10-01T14:18:00.382Z,3.53
2023-10-01T14:20:53.306Z,4.72
2023-10-01T14:23:42.062Z,3.63
2023-10-01T14:26:15.383Z,4.20
2023-10-01T14:28:51.360Z,3.42
2023-10-01T14:31:42.350Z,3.63
2023-10-01T14:34:11.195Z,3.88
2023-10-01T14:36:41.813Z,3.38
2023-10-01T14:39:11.485Z,3.90
2023-10-01T14:41:40.470Z,3.67
2023-10-01T14:44:09.684Z,3.60
2023-10-01T14:46:43.278Z,3.78
2023-10-01T14:49:12.308Z,4.17
2023-10-01T14:51:50.512Z,4.15
2023-10-01T14:54:19.537Z,3.63
2023-10-01T14:56:58.079Z,3.30
2023-10-01T14:59:33.900Z,3.72
2023-10-01T15:02:06.884Z,3.53
2023-10-01T15:04:37.982Z,3.90
2023-10-01T15:07:08.045Z,3.72
2023-10-01T15:09:41.992Z,3.25
2023-10-01T15:12:28.820Z,3.53
2023-10-01T15:15:08.537Z,2.80
2023-10-01T15:17:47.873Z,3.30
2023-10-01T15:20:29.925Z,3.55
2023-10-01T15:22:58.719Z,3.35
2023-10-01T15:25:35.247Z,2.92
2023-10-01T15:28:11.403Z,2.92
2023-10-01T15:30:46.993Z,3.10
2023-10-01T15:33:18.986Z,3.00
2023-10-01T15:35:51.357Z,3.35
2023-10-01T15:38:29.312Z,3.28
2023-10-01T15:41:00.070Z,3.10
2023-10-01T15:43:28.449Z,3.17
2023-10-01T15:46:15.571Z,2.90
2023-10-01T15:48:51.120Z,3.30
2023-10-01T15:51:28.817Z,3.15
2023-10-01T15:53:57.106Z,2.97
2023-10-01T15:56:32.439Z,3.40
2023-10-01T15:59:02.255Z,3.10
2023-10-01T16:01:31.900Z,3.05
2023-10-01T16:04:00.526Z,3.25
2023-10-01T16:06:29.779Z,3.20
2023-10-01T16:09:00.330Z,3.65
2023-10-01T16:11:35.773Z,3.25
2023-10-01T16:14:06.106Z,3.40
2023-10-01T16:16:34.733Z,3.20
2023-10-01T16:19:07.439Z,3.80
2023-10-01T16:21:44.519Z,3.20
2023-10-01T16:24:16.419Z,2.88
2023-10-01T16:26:46.941Z,3.67
2023-10-01T16:29:21.310Z,2.67
2023-10-01T16:31:49.802Z,3.00
2023-10-01T16:34:18.508Z,2.88
2023-10-01T16:36:47.374Z,2.90
2023-10-01T16:39:19.669Z,2.58
2023-10-01T16:41:51.473Z,2.97
2023-10-01T16:44:20.384Z,3.30
2023-10-01T16:47:00.185Z,2.92
2023-10-01T16:49:29.047Z,3.00
2023-10-01T16:51:58.718Z,2.88
2023-10-01T16:54:40.483Z,2.50
2023-10-01T16:57:14.166Z,2.97
2023-10-01T16:59:58.175Z,2.75
2023-10-01T17:02:31.120Z,2.92
2023-10-01T17:05:08.127Z,2.60
2023-10-01T17:07:41.796Z,3.00
2023-10-01T17:10:10.444Z,2.78
2023-10-01T17:12:38.719Z,2.72
2023-10-01T17:15:55.250Z,2.42
2023-10-01T17:18:23.620Z,2.55
2023-10-01T17:20:55.829Z,2.80
2023-10-01T17:23:24.185Z,2.75
2023-10-01T17:26:00.981Z,2.83
2023-10-01T17:28:49.894Z,2.50
2023-10-01T17:31:21.734Z,2.40
2023-10-01T17:34:11.764Z,2.60
2023-10-01T17:36:40.153Z,2.50
2023-10-01T17:39:27.499Z,2.80
2023-10-01T17:42:01.675Z,2.88
2023-10-01T17:44:38.183Z,2.28
2023-10-01T17:47:09.200Z,3.03
2023-10-01T17:49:47.614Z,2.50
2023-10-01T17:52:46.784Z,2.30
2023-10-01T17:55:29.166Z,2.47
2023-10-01T17:57:57.525Z,2.42
2023-10-01T18:00:45.746Z,2.78
2023-10-01T18:03:18.327Z,2.50
2023-10-01T18:06:00.908Z,2.55
2023-10-01T18:08:29.150Z,2.70
2023-10-01T18:11:17.565Z,2.15
2023-10-01T18:13:47.052Z,2.28
2023-10-01T18:16:30.417Z,2.30
2023-10-01T18:19:08.737Z,2.47
2023-10-01T18:21:41.594Z,2.50
2023-10-01T18:24:10.385Z,2.33
2023-10-01T18:26:38.595Z,2.75
2023-10-01T18:29:16.648Z,2.40
2023-10-01T18:31:50.946Z,2.47
2023-10-01T18:36:56.983Z,2.38
2023-10-01T18:39:28.358Z,2.30
2023-10-01T18:41:59.497Z,2.50
2023-10-01T18:44:28.937Z,2.25
2023-10-01T18:46:58.080Z,2.42
2023-10-01T18:49:30.816Z,2.13
2023-10-01T18:51:59.133Z,2.13
2023-10-01T18:54:31.084Z,2.10
2023-10-01T18:57:00.312Z,2.42
2023-10-01T18:59:30.123Z,1.90
2023-10-01T19:02:03.061Z,2.25
2023-10-01T19:04:33.577Z,2.20
2023-10-01T19:07:02.175Z,2.30
2023-10-01T19:09:36.588Z,2.10
2023-10-01T19:12:05.633Z,2.58
2023-10-01T19:14:36.967Z,2.38
2023-10-01T19:17:07.035Z,2.30
2023-10-01T19:19:35.482Z,2.38
2023-10-01T19:22:04.126Z,2.15
2023-10-01T19:24:36.400Z,2.60
2023-10-01T19:27:17.197Z,2.20
2023-10-01T19:29:45.490Z,2.20
2023-10-01T19:32:16.694Z,2.05
2023-10-01T19:34:45.595Z,2.40
2023-10-01T19:37:16.700Z,2.30
2023-10-01T19:39:45.343Z,2.13
2023-10-01T19:42:26.014Z,2.28
2023-10-01T19:45:06.167Z,2.55
2023-10-01T19:47:41.525Z,2.25
2023-10-01T19:50:43.647Z,2.20
2023-10-01T19:53:18.148Z,2.25
2023-10-01T19:56:09.253Z,2.10
2023-10-01T19:58:49.776Z,2.30
2023-10-01T20:01:19.487Z,2.25
2023-10-01T20:03:57.181Z,2.40
2023-10-01T20:06:27.158Z,2.30
2023-10-01T20:08:59.939Z,2.50
2023-10-01T20:11:35.546Z,2.40
2023-10-01T20:14:08.009Z,2.10
2023-10-01T20:16:42.307Z,2.13
2023-10-01T20:21:44.985Z,2.28
2023-10-01T20:24:22.094Z,2.40
2023-10-01T20:26:59.726Z,2.40
2023-10-01T20:29:28.107Z,2.17
2023-10-01T20:32:04.725Z,2.53
2023-10-01T20:34:34.036Z,2.10
2023-10-01T20:37:02.375Z,2.28
2023-10-01T20:39:45.736Z,2.50
2023-10-01T20:42:18.393Z,2.38
2023-10-01T20:44:48.640Z,2.50
2023-10-01T20:47:24.077Z,2.20
2023-10-01T20:49:54.433Z,2.60
2023-10-01T20:52:32.897Z,2.40
2023-10-01T20:55:20.094Z,2.40
2023-10-01T20:57:50.092Z,2.42
2023-10-01T21:00:40.018Z,2.28
2023-10-01T21:03:09.449Z,2.20
2023-10-01T21:05:37.813Z,2.30
2023-10-01T21:08:13.980Z,2.33
2023-10-01T21:10:42.975Z,2.83
2023-10-01T21:13:30.215Z,3.10
2023-10-01T21:16:05.867Z,3.00
2023-10-01T21:18:36.220Z,2.90
2023-10-01T21:21:05.245Z,2.88
2023-10-01T21:23:33.943Z,2.80
2023-10-01T21:26:02.820Z,2.60
2023-10-01T21:28:31.290Z,2.38
2023-10-01T21:30:59.642Z,2.42
2023-10-01T21:33:28.136Z,2.47
2023-10-01T21:35:56.872Z,2.10
2023-10-01T21:38:26.379Z,2.15
2023-10-01T21:40:55.529Z,2.60
2023-10-01T21:43:26.939Z,2.50
2023-10-01T21:46:02.114Z,2.10
2023-10-01T21:48:31.788Z,2.03
2023-10-01T21:51:04.324Z,2.50
2023-10-01T21:53:36.682Z,2.50
2023-10-01T21:56:12.324Z,2.10
2023-10-01T21:58:53.161Z,2.30
2023-10-01T22:01:39.842Z,2.38
2023-10-01T22:04:13.349Z,2.05
2023-10-01T22:06:51.822Z,2.13
2023-10-01T22:09:25.979Z,1.98
2023-10-01T22:14:30.963Z,2.10
2023-10-01T22:16:59.440Z,2.53
2023-10-01T22:19:30.543Z,2.15
2023-10-01T22:21:59.706Z,2.30
2023-10-01T22:24:39.728Z,2.35
2023-10-01T22:27:10.118Z,2.33
2023-10-01T22:29:41.753Z,2.15
2023-10-01T22:32:10.065Z,2.45
2023-10-01T22:34:58.762Z,2.30
2023-10-01T22:37:31.367Z,2.35
2023-10-01T22:39:59.822Z,2.50
2023-10-01T22:42:32.612Z,2.45
2023-10-01T22:45:09.049Z,2.50
2023-10-01T22:47:43.085Z,2.55
2023-10-01T22:50:15.245Z,2.42
2023-10-01T22:52:46.788Z,2.22
2023-10-01T22:55:15.139Z,2.25
2023-10-01T22:57:45.320Z,2.67
2023-10-01T23:00:14.296Z,2.67
2023-10-01T23:02:49.278Z,2.38
2023-10-01T23:05:19.082Z,2.10
2023-10-01T23:07:48.328Z,2.38
2023-10-01T23:10:27.578Z,1.98
2023-10-01T23:13:11.299Z,2.33
2023-10-01T23:15:48.722Z,2.30
2023-10-01T23:18:26.321Z,2.20
2023-10-01T23:20:59.327Z,2.47
2023-10-01T23:23:30.647Z,2.38
2023-10-01T23:26:07.285Z,2.20
2023-10-01T23:28:38.958Z,2.33
2023-10-01T23:31:25.924Z,2.60
2023-10-01T23:33:55.249Z,2.60
2023-10-01T23:36:38.296Z,2.47
2023-10-01T23:39:27.501Z,2.75
2023-10-01T23:41:56.251Z,2.55
2023-10-01T23:44:31.927Z,2.92
2023-10-01T23:47:01.765Z,2.80
2023-10-01T23:49:30.532Z,2.60
2023-10-01T23:52:06.237Z,2.90
2023-10-01T23:54:39.430Z,2.83
2023-10-01T23:57:15.278Z,3.00
2023-10-01T23:59:51.047Z,2.88
